AirNav   TITAN Aviation Fuels
 
 1030 users online  

1OR7 Skyhill Airport
Oregon City, Oregon, USA

GOING TO OREGON CITY?


FAA INFORMATION EFFECTIVE 22 APRIL 2021

Location

FAA Identifier: 1OR7
Lat/Long: 45-17-16.4400N 122-27-22.0000W
45-17.274000N 122-27.366667W
45.2879000,-122.4561111
(estimated)
Elevation: 735 ft. / 224 m (estimated)
Variation: 19E (1985)
From city: 8 miles SE of OREGON CITY, OR
Time zone: UTC -7 (UTC -8 during Standard Time)
Zip code: 97045

Airport Operations

Airport use: Private use. Permission required prior to landing
Control tower: no
ARTCC: SEATTLE CENTER
FSS: MC MINNVILLE FLIGHT SERVICE STATION
Attendance: UNATNDD
Segmented circle: no

Airport Communications

WX ASOS at UAO (13 nm W): PHONE 503-678-3011
WX ASOS at TTD (16 nm N): 135.625 (503-492-2887)
WX ASOS at PDX (19 nm N): PHONE (503) 493-7687

Nearby radio navigation aids

VOR radial/distance  VOR name  Freq  Var
UBGr079/22.4NEWBERG VOR/DME117.4021E
BTGr147/28.2BATTLE GROUND VORTAC116.6021E

 
NDB name  Hdg/Dist  Freq  Var  ID
BANKS114/32.235616EPND .--. -. -..

Airport Services

Airframe service: NONE
Powerplant service: NONE

Runway Information

Runway 7/25

Dimensions: 2500 x 66 ft. / 762 x 20 m
Surface: turf
RUNWAY 7  RUNWAY 25
Traffic pattern: leftleft
Obstructions: trees, 800 ft. from runway
100' HILL.
20 ft. bldg, 200 ft. from runway

Airport Ownership and Management from official FAA records

Ownership: Privately-owned
Owner: SKYHILL FARM
22093 S. RIDGE ROAD
OREGON CITY, OR 97045
Phone 503-631-3340
Manager: TERRY J. BRAUN
22093 S. RIDGE ROAD
OREGON CITY, OR 97045
Phone 503-631-8120

Additional Remarks

FOR CD CTC PORTLAND APCH AT 503-493-7545.

Instrument Procedures

There are no published instrument procedures at 1OR7.

Some nearby airports with instrument procedures:

KUAO - Aurora State Airport (13 nm W)
KTTD - Portland-Troutdale Airport (16 nm N)
KPDX - Portland International Airport (19 nm N)
KVUO - Pearson Field Airport (22 nm NW)
KHIO - Portland-Hillsboro Airport (26 nm NW)
 
Loc | Ops | Rwys | IFR | FBO | Links
Com | Nav | Svcs | Stats | Notes
Area around 1OR7 (Skyhill Airport)
 
Road maps at: MapQuest Bing Google
 
Aerial photo
WARNING: Photo may not be current or correct
Aerial photo of 1OR7 (Skyhill Airport)
Do you have a better or more recent aerial photo of Skyhill Airport that you would like to share? If so, please send us your photo.

 
Sectional chart

 
Airport distance calculator
Flying to Skyhill Airport? Find the distance to fly.

From to 1OR7

Sunrise and sunset
Times for 16-May-2021
 Local
(UTC-7)
 Zulu
(UTC)
Morning civil twilight05:0512:05
Sunrise05:4012:40
Sunset20:3303:33
Evening civil twilight21:0704:07

Current date and time
Zulu (UTC)  17-May-2021 02:18:00
Local (UTC-7)  16-May-2021 19:18:00
 
METAR
KUAO 
13nm W 
170153Z VRB03KT 10SM CLR 28/09 A2985 RMK AO2 SLP105 T02780094
KTTD 
16nm N 
170153Z 33004KT 10SM CLR 27/09 A2984 RMK AO2 SLP103 T02670089
KPDX 
19nm N 
170153Z 36007KT 10SM FEW120 26/09 A2984 RMK AO2 SLP106 T02610094
KVUO 
21nm N 
170153Z AUTO 34005KT 10SM CLR 27/08 A2984 RMK AO2 SLP103 T02670083
KHIO 
26nm NW 
170153Z 33010KT 10SM CLR 26/08 A2985 RMK AO2 SLP105 T02560083
TAF
KUAO 
13nm W 
161747Z 1618/1718 VRB03KT P6SM SKC FM162100 36010KT P6SM SKC FM170300 VRB04KT P6SM SCT250 FM171400 19004KT P6SM SCT030
KTTD 
16nm N 
161747Z 1618/1718 26006KT P6SM SKC FM170300 VRB03KT P6SM SCT250 FM171200 VRB02KT P6SM SCT020
KPDX 
19nm N 
162108Z 1621/1718 30007KT P6SM SKC FM170000 32011G18KT P6SM SKC FM170400 32006KT P6SM SCT250 FM171200 VRB04KT P6SM SCT020
NOTAMs
Click for the latest NOTAMs
NOTAMs are issued by the DoD/FAA and will open in a separate window not controlled by AirNav.

 

 
 

Would you like to see your business listed on this page?

 If your business provides an interesting product or service to pilots, flight crews, aircraft, or users of the Skyhill Airport, you should consider listing it here.  To start the listing process, click on the button below
 
Add a business
 

Other Pages about Skyhill Airport

Update a link
 
Copyright © AirNav, LLC. All rights reserved. Privacy Policy  Contact